createdAt,value
2022-08-21T00:00:25.326Z,95507.81
2022-08-21T00:03:05.383Z,95501.09
2022-08-21T00:05:36.217Z,95511.72
2022-08-21T00:08:03.872Z,95505.41
2022-08-21T00:10:30.524Z,95499.50
2022-08-21T00:12:57.373Z,95497.91
2022-08-21T00:15:27.593Z,95497.84
2022-08-21T00:17:54.891Z,95493.13
2022-08-21T00:20:22.565Z,95498.22
2022-08-21T00:22:50.139Z,95497.81
2022-08-21T00:25:19.827Z,95490.28
2022-08-21T00:27:51.181Z,95502.44
2022-08-21T00:30:22.769Z,95511.84
2022-08-21T00:32:50.813Z,95505.50
2022-08-21T00:35:21.660Z,95497.63
2022-08-21T00:37:48.368Z,95504.72
2022-08-21T00:40:18.471Z,95496.03
2022-08-21T00:42:53.339Z,95494.44
2022-08-21T00:45:20.776Z,95491.69
2022-08-21T00:47:47.517Z,95491.69
2022-08-21T00:50:21.547Z,95482.66
2022-08-21T00:52:52.058Z,95490.47
2022-08-21T00:55:20.976Z,95488.88
2022-08-21T00:57:54.058Z,95489.59
2022-08-21T01:00:28.228Z,95489.19
2022-08-21T01:02:55.099Z,95484.41
2022-08-21T01:05:21.921Z,95490.66
2022-08-21T01:07:51.572Z,95489.44
2022-08-21T01:10:24.058Z,95486.63
2022-08-21T01:12:53.726Z,95482.66
2022-08-21T01:15:22.857Z,95484.19
2022-08-21T01:17:50.478Z,95475.88
2022-08-21T01:20:17.095Z,95482.09
2022-08-21T01:22:44.042Z,95478.56
2022-08-21T01:25:12.783Z,95477.69
2022-08-21T01:27:39.981Z,95472.56
2022-08-21T01:30:18.966Z,95481.13
2022-08-21T01:32:45.985Z,95480.31
2022-08-21T01:35:15.351Z,95472.72
2022-08-21T01:37:42.785Z,95480.97
2022-08-21T01:40:10.430Z,95477.00
2022-08-21T01:42:37.971Z,95476.56
2022-08-21T01:45:06.233Z,95478.47
2022-08-21T01:47:32.896Z,95476.88
2022-08-21T01:49:59.788Z,95483.06
2022-08-21T01:52:27.081Z,95479.88
2022-08-21T01:54:55.235Z,95480.63
2022-08-21T01:57:22.799Z,95472.72
2022-08-21T01:59:52.984Z,95470.72
2022-08-21T02:02:19.871Z,95478.94
2022-08-21T02:08:04.237Z,95475.34
2022-08-21T02:10:32.922Z,95476.50
2022-08-21T02:13:00.286Z,95471.81
2022-08-21T02:15:29.136Z,95474.91
2022-08-21T02:17:58.341Z,95468.63
2022-08-21T02:20:31.878Z,95465.47
2022-08-21T02:22:58.767Z,95465.47
2022-08-21T02:25:26.911Z,95460.34
2022-08-21T02:27:54.376Z,95459.88
2022-08-21T02:30:25.242Z,95466.09
2022-08-21T02:32:52.407Z,95454.69
2022-08-21T02:35:19.567Z,95454.63
2022-08-21T02:37:53.151Z,95450.22
2022-08-21T02:40:23.095Z,95458.81
2022-08-21T02:42:49.678Z,95459.53
2022-08-21T02:45:18.680Z,95459.09
2022-08-21T02:48:02.009Z,95462.56
2022-08-21T02:50:34.520Z,95456.66
2022-08-21T02:53:01.233Z,95455.41
2022-08-21T02:55:30.975Z,95464.38
2022-08-21T02:57:58.963Z,95460.84
2022-08-21T03:00:28.373Z,95463.47
2022-08-21T03:02:55.651Z,95463.06
2022-08-21T03:05:23.424Z,95463.00
2022-08-21T03:07:50.655Z,95457.06
2022-08-21T03:10:17.644Z,95457.78
2022-08-21T03:12:44.211Z,95457.34
2022-08-21T03:15:13.517Z,95458.50
2022-08-21T03:17:40.668Z,95454.16
2022-08-21T03:20:08.952Z,95459.22
2022-08-21T03:22:35.760Z,95455.00
2022-08-21T03:25:05.742Z,95453.22
2022-08-21T03:27:33.843Z,95457.91
2022-08-21T03:30:02.040Z,95462.97
2022-08-21T03:32:28.646Z,95460.59
2022-08-21T03:34:55.358Z,95466.44
2022-08-21T03:37:21.939Z,95461.31
2022-08-21T03:39:48.514Z,95462.81
2022-08-21T03:42:15.159Z,95467.03
2022-08-21T03:44:41.720Z,95467.41
2022-08-21T03:47:08.832Z,95470.13
2022-08-21T03:49:35.402Z,95469.25
2022-08-21T03:52:02.148Z,95466.88
2022-08-21T03:54:28.884Z,95464.47
2022-08-21T03:56:55.868Z,95467.56
2022-08-21T03:59:22.953Z,95471.81
2022-08-21T04:01:58.637Z,95465.13
2022-08-21T04:04:26.453Z,95476.44
2022-08-21T04:06:53.310Z,95475.97
2022-08-21T04:09:19.931Z,95470.50
2022-08-21T04:11:46.875Z,95475.19
2022-08-21T04:14:14.348Z,95479.53
2022-08-21T04:16:42.411Z,95470.44
2022-08-21T04:19:09.326Z,95481.94
2022-08-21T04:21:38.065Z,95484.47
2022-08-21T04:24:06.521Z,95485.66
2022-08-21T04:26:33.052Z,95487.16
2022-08-21T04:28:59.572Z,95486.38
2022-08-21T04:31:26.218Z,95492.19
2022-08-21T04:33:52.887Z,95495.72
2022-08-21T04:36:22.999Z,95501.22
2022-08-21T04:38:51.206Z,95501.22
2022-08-21T04:41:18.454Z,95507.13
2022-08-21T04:43:54.810Z,95501.63
2022-08-21T04:46:21.855Z,95512.59
2022-08-21T04:48:48.455Z,95505.97
2022-08-21T04:51:37.651Z,95508.72
2022-08-21T04:54:13.125Z,95518.97
2022-08-21T04:56:54.030Z,95507.59
2022-08-21T04:59:25.271Z,95508.81
2022-08-21T05:01:52.409Z,95509.59
2022-08-21T05:04:25.886Z,95507.22
2022-08-21T05:06:55.637Z,95506.84
2022-08-21T05:09:23.245Z,95513.94
2022-08-21T05:11:50.283Z,95511.19
2022-08-21T05:14:16.876Z,95510.47
2022-08-21T05:16:43.517Z,95508.16
2022-08-21T05:19:10.851Z,95507.47
2022-08-21T05:21:44.506Z,95515.69
2022-08-21T05:24:11.530Z,95513.06
2022-08-21T05:26:46.260Z,95511.94
2022-08-21T05:29:16.344Z,95511.72
2022-08-21T05:31:43.868Z,95518.53
2022-08-21T05:34:10.584Z,95529.59
2022-08-21T05:36:37.218Z,95521.84
2022-08-21T05:39:04.476Z,95525.91
2022-08-21T05:41:31.177Z,95522.47
2022-08-21T05:44:00.928Z,95522.19
2022-08-21T05:46:27.582Z,95524.31
2022-08-21T05:48:54.168Z,95531.47
2022-08-21T05:51:21.042Z,95533.91
2022-08-21T05:53:47.653Z,95526.53
2022-08-21T05:56:14.494Z,95535.31
2022-08-21T05:58:42.238Z,95531.91
2022-08-21T06:01:09.027Z,95533.56
2022-08-21T06:03:39.135Z,95525.84
2022-08-21T06:06:06.048Z,95535.38
2022-08-21T06:08:32.895Z,95526.88
2022-08-21T06:11:02.026Z,95530.91
2022-08-21T06:13:29.622Z,95533.03
2022-08-21T06:16:08.097Z,95530.34
2022-08-21T06:18:36.789Z,95534.41
2022-08-21T06:21:03.980Z,95528.25
2022-08-21T06:23:31.779Z,95533.78
2022-08-21T06:26:00.798Z,95535.09
2022-08-21T06:28:27.804Z,95536.38
2022-08-21T06:30:55.001Z,95532.97
2022-08-21T06:33:21.549Z,95530.31
2022-08-21T06:35:48.143Z,95528.84
2022-08-21T06:38:14.945Z,95526.56
2022-08-21T06:40:43.912Z,95529.81
2022-08-21T06:43:17.660Z,95524.38
2022-08-21T06:45:44.965Z,95531.53
2022-08-21T06:48:15.636Z,95519.81
2022-08-21T06:50:45.148Z,95523.38
2022-08-21T06:53:14.304Z,95523.88
2022-08-21T06:55:41.729Z,95521.59
2022-08-21T06:58:08.866Z,95522.50
2022-08-21T07:00:37.013Z,95519.00
2022-08-21T07:03:03.585Z,95517.13
2022-08-21T07:05:31.287Z,95519.09
2022-08-21T07:07:58.305Z,95511.72
2022-08-21T07:10:27.135Z,95520.47
2022-08-21T07:13:00.540Z,95519.72
2022-08-21T07:15:32.324Z,95518.16
2022-08-21T07:18:00.146Z,95511.19
2022-08-21T07:20:28.975Z,95508.84
2022-08-21T07:22:57.497Z,95511.31
2022-08-21T07:25:24.355Z,95515.28
2022-08-21T07:27:50.908Z,95505.56
2022-08-21T07:30:17.600Z,95511.53
2022-08-21T07:32:44.287Z,95504.53
2022-08-21T07:35:11.115Z,95518.41
2022-08-21T07:37:37.961Z,95505.88
2022-08-21T07:40:05.259Z,95505.19
2022-08-21T07:42:31.963Z,95499.38
2022-08-21T07:44:58.568Z,95506.53
2022-08-21T07:47:29.446Z,95498.72
2022-08-21T07:50:08.912Z,95499.56
2022-08-21T07:52:35.508Z,95501.97
2022-08-21T07:55:06.109Z,95500.03
2022-08-21T07:57:33.719Z,95499.72
2022-08-21T08:00:00.509Z,95489.09
2022-08-21T08:02:30.442Z,95495.09
2022-08-21T08:05:08.590Z,95488.81
2022-08-21T08:07:35.295Z,95484.91
2022-08-21T08:10:03.125Z,95496.00
2022-08-21T08:12:29.719Z,95486.59
2022-08-21T08:15:01.039Z,95483.88
2022-08-21T08:17:28.446Z,95490.63
2022-08-21T08:19:55.478Z,95478.44
2022-08-21T08:22:23.910Z,95483.22
2022-08-21T08:24:52.161Z,95482.50
2022-08-21T08:27:19.192Z,95479.41
2022-08-21T08:29:46.708Z,95481.44
2022-08-21T08:32:13.491Z,95468.47
2022-08-21T08:34:40.693Z,95466.19
2022-08-21T08:37:09.503Z,95469.34
2022-08-21T08:39:36.609Z,95469.03
2022-08-21T08:42:32.648Z,95470.59
2022-08-21T08:45:06.483Z,95476.97
2022-08-21T08:47:37.655Z,95472.25
2022-08-21T08:50:11.778Z,95478.59
2022-08-21T08:52:46.552Z,95480.63
2022-08-21T08:55:26.659Z,95483.41
2022-08-21T08:57:55.355Z,95482.25
2022-08-21T09:00:24.472Z,95480.28
2022-08-21T09:02:55.116Z,95477.94
2022-08-21T09:05:31.746Z,95476.00
2022-08-21T09:08:23.068Z,95468.16
2022-08-21T09:11:22.172Z,95477.66
2022-08-21T09:14:03.754Z,95478.50
2022-08-21T09:16:42.598Z,95467.84
2022-08-21T09:19:33.694Z,95470.28
2022-08-21T09:22:29.566Z,95464.75
2022-08-21T09:25:14.551Z,95471.09
2022-08-21T09:27:41.172Z,95464.41
2022-08-21T09:30:08.818Z,95463.69
2022-08-21T09:32:38.217Z,95461.34
2022-08-21T09:35:21.484Z,95464.53
2022-08-21T09:37:55.007Z,95464.94
2022-08-21T09:40:37.620Z,95466.50
2022-08-21T09:43:16.901Z,95467.72
2022-08-21T09:45:45.066Z,95464.56
2022-08-21T09:48:11.635Z,95461.38
2022-08-21T09:50:38.344Z,95461.00
2022-08-21T09:53:05.674Z,95457.84
2022-08-21T09:55:38.903Z,95460.22
2022-08-21T09:58:08.663Z,95458.66
2022-08-21T10:00:36.811Z,95447.56
2022-08-21T10:03:13.312Z,95450.34
2022-08-21T10:05:41.034Z,95449.16
2022-08-21T10:08:18.662Z,95445.59
2022-08-21T10:10:45.862Z,95444.34
2022-08-21T10:13:24.628Z,95440.81
2022-08-21T10:16:20.325Z,95438.38
2022-08-21T10:19:11.798Z,95442.72
2022-08-21T10:21:49.091Z,95438.75
2022-08-21T10:24:31.028Z,95442.25
2022-08-21T10:27:34.618Z,95436.75
2022-08-21T10:30:13.742Z,95438.66
2022-08-21T10:32:51.725Z,95440.97
2022-08-21T10:35:25.420Z,95436.16
2022-08-21T10:38:28.114Z,95429.00
2022-08-21T10:41:16.205Z,95422.63
2022-08-21T10:44:04.467Z,95428.06
2022-08-21T10:46:31.137Z,95415.31
2022-08-21T10:49:14.959Z,95416.81
2022-08-21T10:51:58.526Z,95416.00
2022-08-21T10:54:34.426Z,95424.28
2022-08-21T10:57:09.237Z,95423.03
2022-08-21T10:59:46.915Z,95417.41
2022-08-21T11:02:20.639Z,95412.53
2022-08-21T11:05:16.423Z,95405.28
2022-08-21T11:07:58.988Z,95398.38
2022-08-21T11:10:36.810Z,95404.00
2022-08-21T11:13:39.778Z,95413.44
2022-08-21T11:16:15.121Z,95403.00
2022-08-21T11:18:50.081Z,95404.19
2022-08-21T11:21:25.613Z,95398.63
2022-08-21T11:24:18.068Z,95401.97
2022-08-21T11:26:53.354Z,95400.81
2022-08-21T11:29:30.394Z,95392.88
2022-08-21T11:32:02.644Z,95397.31
2022-08-21T11:34:47.368Z,95383.06
2022-08-21T11:37:42.534Z,95385.88
2022-08-21T11:40:22.399Z,95380.69
2022-08-21T11:43:17.892Z,95369.16
2022-08-21T11:45:55.599Z,95373.00
2022-08-21T11:48:28.041Z,95373.97
2022-08-21T11:50:56.239Z,95370.66
2022-08-21T11:54:08.846Z,95371.41
2022-08-21T11:56:42.803Z,95367.69
2022-08-21T11:59:14.816Z,95368.00
2022-08-21T12:01:46.532Z,95365.91
2022-08-21T12:04:28.275Z,95358.91
2022-08-21T12:06:56.585Z,95367.91
2022-08-21T12:09:26.343Z,95367.38
2022-08-21T12:12:13.041Z,95357.59
2022-08-21T12:14:48.340Z,95354.13
2022-08-21T12:17:39.141Z,95356.25
2022-08-21T12:20:20.925Z,95361.06
2022-08-21T12:23:03.138Z,95358.41
2022-08-21T12:26:00.717Z,95360.38
2022-08-21T12:28:29.746Z,95356.75
2022-08-21T12:30:58.227Z,95348.94
2022-08-21T12:33:30.739Z,95354.72
2022-08-21T12:36:13.102Z,95363.66
2022-08-21T12:38:48.586Z,95357.16
2022-08-21T12:41:21.934Z,95357.47
2022-08-21T12:43:59.016Z,95348.88
2022-08-21T12:46:41.347Z,95347.53
2022-08-21T12:49:19.498Z,95346.53
2022-08-21T12:52:02.727Z,95338.03
2022-08-21T12:54:33.337Z,95333.03
2022-08-21T12:57:05.697Z,95335.22
2022-08-21T12:59:33.420Z,95325.06
2022-08-21T13:02:04.406Z,95334.38
2022-08-21T13:04:38.674Z,95341.63
2022-08-21T13:07:11.024Z,95337.75
2022-08-21T13:09:50.684Z,95329.50
2022-08-21T13:12:19.405Z,95331.06
2022-08-21T13:14:47.605Z,95325.94
2022-08-21T13:17:25.742Z,95320.34
2022-08-21T13:20:02.801Z,95318.63
2022-08-21T13:22:34.619Z,95321.28
2022-08-21T13:25:06.944Z,95315.53
2022-08-21T13:27:34.643Z,95307.44
2022-08-21T13:30:07.572Z,95315.22
2022-08-21T13:32:37.076Z,95307.94
2022-08-21T13:35:16.373Z,95311.84
2022-08-21T13:37:44.729Z,95307.72
2022-08-21T13:40:16.750Z,95306.41
2022-08-21T13:42:46.820Z,95300.84
2022-08-21T13:45:30.859Z,95303.47
2022-08-21T13:47:57.890Z,95298.81
2022-08-21T13:50:27.696Z,95303.28
2022-08-21T13:53:03.578Z,95300.09
2022-08-21T13:55:40.005Z,95305.72
2022-08-21T13:58:07.304Z,95299.97
2022-08-21T14:00:36.819Z,95297.31
2022-08-21T14:03:08.781Z,95297.00
2022-08-21T14:05:45.356Z,95290.34
2022-08-21T14:08:16.551Z,95291.59
2022-08-21T14:10:57.195Z,95295.16
2022-08-21T14:13:41.251Z,95287.22
2022-08-21T14:16:44.734Z,95287.56
2022-08-21T14:19:24.693Z,95300.03
2022-08-21T14:21:51.449Z,95291.13
2022-08-21T14:24:24.090Z,95284.75
2022-08-21T14:26:57.095Z,95280.28
2022-08-21T14:29:27.617Z,95281.78
2022-08-21T14:32:01.346Z,95276.91
2022-08-21T14:34:35.793Z,95287.06
2022-08-21T14:37:02.719Z,95294.94
2022-08-21T14:39:29.307Z,95289.00
2022-08-21T14:41:57.422Z,95288.66
2022-08-21T14:44:24.261Z,95281.63
2022-08-21T14:46:55.898Z,95285.41
2022-08-21T14:49:24.499Z,95287.53
2022-08-21T14:51:54.176Z,95279.50
2022-08-21T14:54:22.533Z,95281.13
2022-08-21T14:57:00.489Z,95277.97
2022-08-21T14:59:27.105Z,95270.88
2022-08-21T15:01:53.661Z,95269.03
2022-08-21T15:04:20.435Z,95268.94
2022-08-21T15:06:47.032Z,95267.13
2022-08-21T15:09:13.566Z,95271.69
2022-08-21T15:11:42.522Z,95267.13
2022-08-21T15:14:15.000Z,95258.44
2022-08-21T15:16:41.809Z,95265.16
2022-08-21T15:19:08.383Z,95259.66
2022-08-21T15:21:34.919Z,95255.63
2022-08-21T15:24:01.535Z,95263.19
2022-08-21T15:26:28.351Z,95260.91
2022-08-21T15:28:55.137Z,95265.75
2022-08-21T15:31:21.768Z,95259.78
2022-08-21T15:33:48.299Z,95254.44
2022-08-21T15:36:14.879Z,95261.59
2022-08-21T15:38:41.738Z,95256.00
2022-08-21T15:41:08.771Z,95255.91
2022-08-21T15:43:43.891Z,95260.81
2022-08-21T15:46:14.043Z,95252.25
2022-08-21T15:48:41.155Z,95249.34
2022-08-21T15:51:11.077Z,95258.41
2022-08-21T15:53:37.899Z,95255.66
2022-08-21T15:56:04.774Z,95248.81
2022-08-21T15:58:31.603Z,95251.41
2022-08-21T16:01:02.420Z,95250.50
2022-08-21T16:03:29.333Z,95244.81
2022-08-21T16:05:55.970Z,95251.84
2022-08-21T16:08:22.573Z,95249.06
2022-08-21T16:10:49.810Z,95255.41
2022-08-21T16:13:31.175Z,95244.63
2022-08-21T16:15:57.827Z,95239.88
2022-08-21T16:18:24.555Z,95247.91
2022-08-21T16:20:51.297Z,95246.75
2022-08-21T16:23:18.339Z,95244.28
2022-08-21T16:25:45.490Z,95242.81
2022-08-21T16:28:15.643Z,95243.09
2022-08-21T16:30:45.031Z,95238.38
2022-08-21T16:33:23.726Z,95235.63
2022-08-21T16:35:50.624Z,95240.31
2022-08-21T16:38:17.348Z,95235.84
2022-08-21T16:40:44.255Z,95239.25
2022-08-21T16:43:11.078Z,95237.06
2022-08-21T16:45:39.140Z,95234.94
2022-08-21T16:48:05.909Z,95224.78
2022-08-21T16:50:32.551Z,95229.59
2022-08-21T16:52:59.231Z,95225.03
2022-08-21T16:55:26.074Z,95223.31
2022-08-21T16:57:54.318Z,95226.47
2022-08-21T17:00:21.061Z,95222.34
2022-08-21T17:02:53.644Z,95223.53
2022-08-21T17:05:20.411Z,95231.34
2022-08-21T17:07:47.093Z,95223.31
2022-08-21T17:10:16.558Z,95220.84
2022-08-21T17:12:47.335Z,95221.16
2022-08-21T17:15:22.477Z,95229.56
2022-08-21T17:17:49.815Z,95222.38
2022-08-21T17:20:16.625Z,95223.66
2022-08-21T17:22:43.191Z,95231.22
2022-08-21T17:25:10.520Z,95233.25
2022-08-21T17:27:37.553Z,95231.72
2022-08-21T17:30:06.546Z,95230.13
2022-08-21T17:32:33.307Z,95230.91
2022-08-21T17:34:59.947Z,95232.59
2022-08-21T17:37:29.346Z,95234.72
2022-08-21T17:39:56.647Z,95229.72
2022-08-21T17:42:24.202Z,95231.50
2022-08-21T17:44:50.884Z,95230.16
2022-08-21T17:47:17.873Z,95235.97
2022-08-21T17:49:44.438Z,95234.31
2022-08-21T17:52:11.027Z,95226.78
2022-08-21T17:54:37.707Z,95220.69
2022-08-21T17:57:05.678Z,95225.59
2022-08-21T17:59:32.628Z,95228.44
2022-08-21T18:01:59.584Z,95235.50
2022-08-21T18:04:26.182Z,95236.47
2022-08-21T18:06:52.709Z,95239.31
2022-08-21T18:09:19.357Z,95237.31
2022-08-21T18:11:46.233Z,95245.22
2022-08-21T18:14:13.530Z,95248.97
2022-08-21T18:16:40.247Z,95253.13
2022-08-21T18:19:11.675Z,95250.81
2022-08-21T18:21:38.358Z,95256.75
2022-08-21T18:24:05.295Z,95254.69
2022-08-21T18:26:35.770Z,95253.38
2022-08-21T18:29:05.965Z,95265.53
2022-08-21T18:31:35.018Z,95266.91
2022-08-21T18:34:07.778Z,95270.63
2022-08-21T18:36:34.742Z,95275.16
2022-08-21T18:39:25.682Z,95280.00
2022-08-21T18:41:49.507Z,95282.50
2022-08-21T18:44:18.133Z,95284.97
2022-08-21T18:46:51.431Z,95283.84
2022-08-21T18:49:18.154Z,95277.56
2022-08-21T18:51:45.553Z,95283.53
2022-08-21T18:54:12.901Z,95291.09
2022-08-21T18:56:40.934Z,95286.38
2022-08-21T18:59:08.897Z,95294.28
2022-08-21T19:01:35.756Z,95297.47
2022-08-21T19:04:02.483Z,95286.38
2022-08-21T19:06:29.099Z,95287.19
2022-08-21T19:08:55.961Z,95297.84
2022-08-21T19:11:25.055Z,95291.50
2022-08-21T19:13:52.922Z,95290.31
2022-08-21T19:16:21.277Z,95296.22
2022-08-21T19:18:48.323Z,95300.16
2022-08-21T19:21:15.041Z,95299.34
2022-08-21T19:23:42.469Z,95306.78
2022-08-21T19:26:11.126Z,95303.22
2022-08-21T19:28:41.725Z,95305.53
2022-08-21T19:31:24.006Z,95300.00
2022-08-21T19:33:57.683Z,95305.47
2022-08-21T19:36:34.436Z,95305.84
2022-08-21T19:39:01.486Z,95305.81
2022-08-21T19:41:37.134Z,95312.88
2022-08-21T19:44:07.150Z,95306.13
2022-08-21T19:46:37.357Z,95318.69
2022-08-21T19:49:06.890Z,95312.00
2022-08-21T19:51:35.250Z,95308.00
2022-08-21T19:54:02.325Z,95308.75
2022-08-21T19:56:32.375Z,95313.03
2022-08-21T19:59:03.069Z,95315.72
2022-08-21T20:01:32.745Z,95310.97
2022-08-21T20:03:59.653Z,95299.50
2022-08-21T20:06:26.616Z,95303.38
2022-08-21T20:08:54.479Z,95307.31
2022-08-21T20:11:32.944Z,95304.50
2022-08-21T20:14:00.917Z,95308.00
2022-08-21T20:16:29.002Z,95307.59
2022-08-21T20:18:55.553Z,95306.66
2022-08-21T20:21:23.716Z,95303.53
2022-08-21T20:23:50.384Z,95309.03
2022-08-21T20:26:18.848Z,95300.34
2022-08-21T20:28:46.012Z,95307.34
2022-08-21T20:31:17.167Z,95306.09
2022-08-21T20:33:46.371Z,95300.94
2022-08-21T20:36:17.031Z,95300.84
2022-08-21T20:38:44.208Z,95308.28
2022-08-21T20:41:17.962Z,95303.50
2022-08-21T20:43:57.707Z,95301.09
2022-08-21T20:46:27.814Z,95300.25
2022-08-21T20:48:54.730Z,95299.44
2022-08-21T20:51:33.222Z,95294.28
2022-08-21T20:54:18.117Z,95304.06
2022-08-21T20:56:44.617Z,95304.41
2022-08-21T20:59:32.864Z,95309.44
2022-08-21T21:02:16.178Z,95298.78
2022-08-21T21:04:51.666Z,95304.25
2022-08-21T21:07:52.123Z,95299.03
2022-08-21T21:10:43.028Z,95295.47
2022-08-21T21:13:27.506Z,95300.50
2022-08-21T21:16:05.798Z,95298.06
2022-08-21T21:18:36.295Z,95300.00
2022-08-21T21:21:15.387Z,95294.44
2022-08-21T21:23:50.113Z,95295.16
2022-08-21T21:26:30.467Z,95303.34
2022-08-21T21:29:04.342Z,95305.66
2022-08-21T21:31:37.016Z,95299.31
2022-08-21T21:34:03.868Z,95313.81
2022-08-21T21:36:43.874Z,95310.22
2022-08-21T21:39:36.430Z,95302.28
2022-08-21T21:42:18.387Z,95299.50
2022-08-21T21:45:21.784Z,95306.50
2022-08-21T21:48:12.582Z,95300.19
2022-08-21T21:53:51.696Z,95306.34
2022-08-21T21:56:40.371Z,95307.13
2022-08-21T21:59:39.660Z,95302.38
2022-08-21T22:02:17.381Z,95309.38
2022-08-21T22:04:56.355Z,95304.63
2022-08-21T22:07:37.269Z,95308.47
2022-08-21T22:10:30.711Z,95303.72
2022-08-21T22:13:14.257Z,95303.66
2022-08-21T22:15:53.806Z,95300.50
2022-08-21T22:18:25.908Z,95305.91
2022-08-21T22:21:00.431Z,95303.53
2022-08-21T22:23:31.873Z,95306.66
2022-08-21T22:26:07.395Z,95296.44
2022-08-21T22:28:38.937Z,95298.69
2022-08-21T22:31:14.605Z,95304.94
2022-08-21T22:33:41.971Z,95306.09
2022-08-21T22:36:19.338Z,95297.00
2022-08-21T22:38:46.776Z,95300.13
2022-08-21T22:41:18.010Z,95302.44
2022-08-21T22:44:02.466Z,95298.84
2022-08-21T22:46:55.435Z,95300.75
2022-08-21T22:49:31.272Z,95299.09
2022-08-21T22:52:27.146Z,95301.75
2022-08-21T22:54:57.246Z,95301.34
2022-08-21T22:57:28.600Z,95310.31
2022-08-21T23:00:17.620Z,95307.50
2022-08-21T23:03:06.024Z,95303.53
2022-08-21T23:05:43.153Z,95303.09
2022-08-21T23:08:24.702Z,95303.84
2022-08-21T23:10:56.186Z,95297.91
2022-08-21T23:13:23.134Z,95299.06
2022-08-21T23:15:52.607Z,95300.59
2022-08-21T23:18:34.359Z,95291.94
2022-08-21T23:21:19.246Z,95284.41
2022-08-21T23:24:19.119Z,95283.59
2022-08-21T23:27:18.341Z,95283.94
2022-08-21T23:30:10.989Z,95284.25
2022-08-21T23:36:22.840Z,95282.59
2022-08-21T23:39:20.373Z,95289.94
2022-08-21T23:42:10.426Z,95284.03
2022-08-21T23:45:00.256Z,95294.56
2022-08-21T23:47:56.778Z,95292.53
2022-08-21T23:50:49.276Z,95288.19
2022-08-21T23:53:33.681Z,95294.44
2022-08-21T23:56:15.600Z,95293.22
2022-08-21T23:59:22.544Z,95289.97
